KAEG

Double Eagle II Airport

Albuquerque, New Mexico, USA
METAR KAEG 220147Z 36014G21KT 10SM SCT 943 BKN120 14/09 A3004 RMK LTG DSNT E-SW
Observed Flight Rules
May-22 @ 01:47 UTC (53 minutes ago) Visual Flight Rules
Wind Visibility Clouds
360° at 14 knots
 Gusting to 21 knots
10 miles
  • Scattered
  • Broken at 12,000' AGL
Temperatures Readings
Current 14°C / 57°F
Dewpoint 9°C / 48°F
Humidity 72%
Altimeter 30.04" Hg
Pressure 1017 hPa
Elevation 1779
METAR KAEG 220147Z 36014G21KT 10SM SCT 943 BKN120 14/09 A3004 RMK LTG DSNT E-SW
Observed Flight Rules
May-22 @ 01:47 UTC
(53 minutes ago)
VFR
Wind Visibility
360° at 14 knots
 Gusting to 21 knots
10 miles
Clouds
  • Scattered
  • Broken at 12,000' AGL
Temperature Dewpoint
14°C / 57°F 9°C / 48°F
Humidity Altimeter Pressure
72% 30.04" Hg 1017 hPa